createdAt,value
2023-05-14T00:01:04.120Z,18.08
2023-05-14T00:03:31.119Z,17.63
2023-05-14T00:05:58.360Z,16.38
2023-05-14T00:08:25.091Z,16.35
2023-05-14T00:10:52.411Z,15.00
2023-05-14T00:13:19.141Z,16.00
2023-05-14T00:15:45.930Z,17.20
2023-05-14T00:18:12.590Z,15.70
2023-05-14T00:20:39.379Z,15.27
2023-05-14T00:23:06.057Z,16.30
2023-05-14T00:25:32.694Z,16.02
2023-05-14T00:27:59.373Z,15.70
2023-05-14T00:30:26.225Z,16.40
2023-05-14T00:32:53.634Z,15.48
2023-05-14T00:35:21.535Z,17.20
2023-05-14T00:37:48.390Z,17.98
2023-05-14T00:40:15.479Z,16.67
2023-05-14T00:42:42.202Z,15.95
2023-05-14T00:45:09.470Z,17.02
2023-05-14T00:47:37.164Z,17.27
2023-05-14T00:50:04.765Z,17.33
2023-05-14T00:52:32.214Z,18.25
2023-05-14T00:54:59.818Z,18.77
2023-05-14T00:57:26.717Z,16.65
2023-05-14T00:59:53.933Z,20.02
2023-05-14T01:02:20.771Z,18.50
2023-05-14T01:04:47.533Z,19.10
2023-05-14T01:07:36.899Z,19.85
2023-05-14T01:10:09.737Z,20.67
2023-05-14T01:13:13.803Z,20.05
2023-05-14T01:15:42.626Z,19.08
2023-05-14T01:18:13.644Z,19.95
2023-05-14T01:20:40.598Z,20.17
2023-05-14T01:23:08.081Z,18.58
2023-05-14T01:25:35.248Z,20.55
2023-05-14T01:28:20.488Z,20.05
2023-05-14T01:30:58.228Z,18.35
2023-05-14T01:33:29.219Z,18.58
2023-05-14T01:35:56.384Z,21.35
2023-05-14T01:38:23.912Z,20.60
2023-05-14T01:40:51.265Z,17.70
2023-05-14T01:43:19.140Z,20.38
2023-05-14T01:45:46.157Z,20.98
2023-05-14T01:48:12.992Z,36.35
2023-05-14T01:50:39.646Z,35.45
2023-05-14T01:53:06.435Z,47.15
2023-05-14T01:55:33.220Z,49.47
2023-05-14T01:57:59.913Z,57.83
2023-05-14T02:05:17.616Z,50.63
2023-05-14T02:07:44.428Z,55.97
2023-05-14T02:10:11.400Z,54.10
2023-05-14T02:12:38.152Z,57.83
2023-05-14T02:15:05.627Z,56.45
2023-05-14T02:17:32.579Z,52.33
2023-05-14T02:19:59.260Z,44.72
2023-05-14T02:22:25.922Z,50.92
2023-05-14T02:24:52.659Z,47.80
2023-05-14T02:27:19.323Z,52.72
2023-05-14T02:29:45.990Z,48.78
2023-05-14T02:32:12.699Z,47.55
2023-05-14T02:34:39.411Z,50.38
2023-05-14T02:37:06.349Z,43.63
2023-05-14T02:39:33.060Z,36.55
2023-05-14T02:41:59.720Z,37.20
2023-05-14T02:44:26.393Z,37.28
2023-05-14T02:46:53.478Z,35.45
2023-05-14T02:49:20.111Z,31.98
2023-05-14T02:51:46.858Z,38.53
2023-05-14T02:54:13.596Z,30.85
2023-05-14T02:56:40.378Z,29.23
2023-05-14T02:59:07.036Z,32.83
2023-05-14T03:01:34.235Z,28.08
2023-05-14T03:04:01.387Z,29.60
2023-05-14T03:06:28.053Z,27.92
2023-05-14T03:08:54.785Z,29.35
2023-05-14T03:11:21.704Z,29.95
2023-05-14T03:13:48.406Z,29.90
2023-05-14T03:16:16.008Z,30.48
2023-05-14T03:18:42.787Z,31.50
2023-05-14T03:21:09.519Z,33.35
2023-05-14T03:23:36.287Z,27.95
2023-05-14T03:26:03.698Z,31.65
2023-05-14T03:28:30.900Z,29.00
2023-05-14T03:30:59.926Z,29.25
2023-05-14T03:33:26.732Z,27.35
2023-05-14T03:35:53.445Z,26.75
2023-05-14T03:38:21.242Z,25.92
2023-05-14T03:40:47.987Z,25.73
2023-05-14T03:43:14.660Z,28.98
2023-05-14T03:45:41.433Z,30.10
2023-05-14T03:48:08.368Z,26.95
2023-05-14T03:50:35.770Z,26.63
2023-05-14T03:53:02.450Z,23.48
2023-05-14T03:55:30.068Z,25.90
2023-05-14T03:57:56.739Z,23.77
2023-05-14T04:00:23.623Z,25.13
2023-05-14T04:02:52.406Z,24.52
2023-05-14T04:05:19.187Z,26.65
2023-05-14T04:07:46.125Z,27.08
2023-05-14T04:10:14.037Z,23.88
2023-05-14T04:12:40.732Z,23.70
2023-05-14T04:15:09.320Z,23.70
2023-05-14T04:17:36.074Z,22.10
2023-05-14T04:20:02.769Z,22.23
2023-05-14T04:22:29.423Z,24.05
2023-05-14T04:24:56.044Z,25.15
2023-05-14T04:27:22.852Z,25.40
2023-05-14T04:29:50.721Z,22.05
2023-05-14T04:32:18.187Z,24.27
2023-05-14T04:34:45.073Z,20.25
2023-05-14T04:37:11.811Z,20.40
2023-05-14T04:39:38.941Z,21.30
2023-05-14T04:42:06.826Z,19.15
2023-05-14T04:44:35.117Z,19.73
2023-05-14T04:47:02.254Z,17.88
2023-05-14T04:49:29.612Z,18.25
2023-05-14T04:51:56.445Z,17.50
2023-05-14T04:54:23.229Z,16.55
2023-05-14T04:56:51.077Z,15.80
2023-05-14T04:59:17.725Z,14.77
2023-05-14T05:01:45.435Z,15.15
2023-05-14T05:04:12.531Z,14.25
2023-05-14T05:06:39.389Z,12.70
2023-05-14T05:09:06.057Z,13.35
2023-05-14T05:11:32.792Z,12.90
2023-05-14T05:13:59.463Z,12.90
2023-05-14T05:16:26.382Z,12.48
2023-05-14T05:18:53.458Z,11.93
2023-05-14T05:21:20.563Z,11.45
2023-05-14T05:23:47.323Z,12.57
2023-05-14T05:26:14.058Z,11.15
2023-05-14T05:28:40.808Z,11.88
2023-05-14T05:31:07.943Z,12.38
2023-05-14T05:33:35.559Z,12.20
2023-05-14T05:36:02.819Z,13.35
2023-05-14T05:38:29.541Z,13.30
2023-05-14T05:40:56.232Z,12.45
2023-05-14T05:43:23.150Z,11.63
2023-05-14T05:45:49.852Z,11.48
2023-05-14T05:48:16.605Z,10.60
2023-05-14T05:50:44.831Z,10.88
2023-05-14T05:53:12.447Z,11.73
2023-05-14T05:55:39.402Z,10.77
2023-05-14T05:58:06.080Z,11.30
2023-05-14T06:00:35.852Z,10.68
2023-05-14T06:03:02.660Z,11.32
2023-05-14T06:05:29.388Z,11.23
2023-05-14T06:07:56.089Z,11.40
2023-05-14T06:10:22.993Z,10.77
2023-05-14T06:12:49.812Z,11.63
2023-05-14T06:15:16.492Z,10.75
2023-05-14T06:17:43.285Z,12.07
2023-05-14T06:20:11.233Z,14.32
2023-05-14T06:22:38.070Z,12.50
2023-05-14T06:25:05.240Z,13.07
2023-05-14T06:27:31.882Z,11.60
2023-05-14T06:29:58.576Z,11.93
2023-05-14T06:32:25.241Z,11.60
2023-05-14T06:34:51.869Z,11.75
2023-05-14T06:37:18.525Z,12.25
2023-05-14T06:39:49.953Z,12.60
2023-05-14T06:42:17.739Z,13.00
2023-05-14T06:44:45.284Z,12.75
2023-05-14T06:47:12.085Z,12.27
2023-05-14T06:49:39.378Z,13.60
2023-05-14T06:52:06.787Z,11.90
2023-05-14T06:54:33.561Z,13.52
2023-05-14T06:57:00.304Z,13.85
2023-05-14T06:59:27.658Z,12.85
2023-05-14T07:01:54.317Z,13.85
2023-05-14T07:04:21.023Z,14.02
2023-05-14T07:06:47.683Z,13.57
2023-05-14T07:09:14.350Z,13.45
2023-05-14T07:11:41.036Z,13.63
2023-05-14T07:14:07.673Z,14.30
2023-05-14T07:16:34.513Z,13.60
2023-05-14T07:19:01.258Z,14.23
2023-05-14T07:21:28.019Z,12.68
2023-05-14T07:23:54.690Z,13.00
2023-05-14T07:26:21.506Z,13.82
2023-05-14T07:28:48.201Z,14.05
2023-05-14T07:31:14.917Z,13.27
2023-05-14T07:33:41.602Z,13.13
2023-05-14T07:36:08.875Z,12.90
2023-05-14T07:38:35.761Z,12.63
2023-05-14T07:41:02.932Z,13.10
2023-05-14T07:43:29.679Z,14.57
2023-05-14T07:45:56.494Z,13.43
2023-05-14T07:48:23.440Z,13.82
2023-05-14T07:50:50.282Z,14.43
2023-05-14T07:53:17.051Z,14.43
2023-05-14T07:55:45.724Z,14.65
2023-05-14T07:58:12.408Z,15.23
2023-05-14T08:00:39.145Z,14.98
2023-05-14T08:03:06.076Z,15.07
2023-05-14T08:05:33.034Z,14.52
2023-05-14T08:07:59.830Z,15.75
2023-05-14T08:10:27.252Z,15.65
2023-05-14T08:12:54.285Z,15.65
2023-05-14T08:15:21.050Z,15.50
2023-05-14T08:17:47.856Z,15.00
2023-05-14T08:20:14.583Z,15.30
2023-05-14T08:22:41.416Z,15.18
2023-05-14T08:25:08.460Z,14.45
2023-05-14T08:27:35.177Z,15.07
2023-05-14T08:30:01.924Z,15.10
2023-05-14T08:32:29.667Z,14.48
2023-05-14T08:34:56.427Z,14.27
2023-05-14T08:37:23.087Z,15.95
2023-05-14T08:39:49.790Z,15.38
2023-05-14T08:42:21.426Z,15.18
2023-05-14T08:44:53.160Z,15.70
2023-05-14T08:47:23.274Z,16.02
2023-05-14T08:50:04.267Z,15.52
2023-05-14T08:52:31.502Z,15.30
2023-05-14T08:55:01.095Z,12.88
2023-05-14T08:57:30.070Z,11.45
2023-05-14T08:59:57.173Z,10.75
2023-05-14T09:02:29.345Z,10.57
2023-05-14T09:04:59.241Z,11.98
2023-05-14T09:07:26.814Z,11.60
2023-05-14T09:09:54.772Z,11.40
2023-05-14T09:12:22.184Z,10.63
2023-05-14T09:14:50.048Z,11.30
2023-05-14T09:17:18.176Z,11.38
2023-05-14T09:19:52.851Z,10.45
2023-05-14T09:25:01.266Z,10.30
2023-05-14T09:27:31.641Z,10.85
2023-05-14T09:30:10.013Z,9.68
2023-05-14T09:32:38.936Z,8.77
2023-05-14T09:35:24.918Z,8.25
2023-05-14T09:37:55.163Z,8.43
2023-05-14T09:40:24.649Z,7.10
2023-05-14T09:42:51.708Z,6.78
2023-05-14T09:45:18.545Z,6.75
2023-05-14T09:47:45.645Z,6.70
2023-05-14T09:50:12.764Z,6.43
2023-05-14T09:52:39.717Z,7.03
2023-05-14T09:55:08.045Z,6.38
2023-05-14T09:57:35.426Z,6.97
2023-05-14T10:00:02.350Z,7.38
2023-05-14T10:02:37.722Z,6.90
2023-05-14T10:05:07.050Z,6.78
2023-05-14T10:07:44.596Z,7.25
2023-05-14T10:10:17.060Z,5.57
2023-05-14T10:12:52.925Z,5.75
2023-05-14T10:15:26.817Z,5.85
2023-05-14T10:18:02.253Z,5.57
2023-05-14T10:20:30.818Z,5.55
2023-05-14T10:22:58.924Z,5.03
2023-05-14T10:25:26.230Z,4.75
2023-05-14T10:27:53.965Z,4.07
2023-05-14T10:30:25.084Z,4.40
2023-05-14T10:33:07.770Z,3.53
2023-05-14T10:36:00.666Z,4.00
2023-05-14T10:38:29.894Z,4.03
2023-05-14T10:41:00.050Z,3.60
2023-05-14T10:43:29.349Z,3.40
2023-05-14T10:45:57.288Z,3.28
2023-05-14T10:48:25.784Z,2.90
2023-05-14T10:50:53.497Z,3.13
2023-05-14T10:53:21.095Z,2.90
2023-05-14T10:55:47.789Z,3.65
2023-05-14T10:58:15.536Z,3.28
2023-05-14T11:00:42.700Z,3.45
2023-05-14T11:03:10.090Z,3.20
2023-05-14T11:05:38.749Z,2.67
2023-05-14T11:08:08.706Z,2.47
2023-05-14T11:10:35.775Z,2.35
2023-05-14T11:13:02.795Z,2.70
2023-05-14T11:15:29.703Z,2.70
2023-05-14T11:17:56.537Z,2.92
2023-05-14T11:20:23.760Z,2.75
2023-05-14T11:22:53.623Z,3.28
2023-05-14T11:25:21.705Z,2.95
2023-05-14T11:27:50.387Z,3.05
2023-05-14T11:30:19.972Z,3.30
2023-05-14T11:32:49.111Z,2.83
2023-05-14T11:35:17.785Z,2.90
2023-05-14T11:37:52.222Z,3.10
2023-05-14T11:40:19.516Z,3.05
2023-05-14T11:42:46.422Z,2.75
2023-05-14T11:45:23.695Z,2.42
2023-05-14T11:47:50.465Z,2.35
2023-05-14T11:50:17.131Z,2.50
2023-05-14T11:52:43.834Z,2.42
2023-05-14T11:55:13.992Z,2.38
2023-05-14T11:57:41.262Z,2.40
2023-05-14T12:00:16.623Z,2.08
2023-05-14T12:02:43.379Z,2.15
2023-05-14T12:05:13.294Z,1.95
2023-05-14T12:07:40.262Z,2.78
2023-05-14T12:10:07.835Z,2.15
2023-05-14T12:12:37.607Z,1.80
2023-05-14T12:15:13.365Z,1.50
2023-05-14T12:17:40.800Z,1.58
2023-05-14T12:20:12.341Z,2.20
2023-05-14T12:22:41.528Z,1.90
2023-05-14T12:25:13.724Z,1.95
2023-05-14T12:27:41.200Z,1.80
2023-05-14T12:32:41.788Z,1.92
2023-05-14T12:35:09.518Z,2.03
2023-05-14T12:37:37.455Z,2.30
2023-05-14T12:40:09.208Z,1.95
2023-05-14T12:42:36.476Z,2.65
2023-05-14T12:45:07.202Z,1.70
2023-05-14T12:47:34.784Z,1.90
2023-05-14T12:50:01.629Z,1.70
2023-05-14T12:52:37.717Z,2.00
2023-05-14T12:55:09.885Z,2.03
2023-05-14T12:57:38.838Z,1.80
2023-05-14T13:00:08.426Z,1.67
2023-05-14T13:02:42.323Z,1.90
2023-05-14T13:05:10.726Z,1.90
2023-05-14T13:07:37.704Z,1.80
2023-05-14T13:10:08.265Z,1.80
2023-05-14T13:12:35.039Z,2.10
2023-05-14T13:15:02.013Z,1.70
2023-05-14T13:17:28.784Z,2.10
2023-05-14T13:19:55.530Z,2.00
2023-05-14T13:22:22.172Z,1.50
2023-05-14T13:24:48.833Z,1.80
2023-05-14T13:27:15.519Z,1.70
2023-05-14T13:29:42.280Z,1.67
2023-05-14T13:32:09.023Z,2.10
2023-05-14T13:34:36.262Z,2.00
2023-05-14T13:37:03.978Z,1.90
2023-05-14T13:39:30.823Z,1.60
2023-05-14T13:41:57.590Z,2.10
2023-05-14T13:44:24.606Z,2.47
2023-05-14T13:46:51.402Z,2.50
2023-05-14T13:49:18.419Z,2.20
2023-05-14T13:51:45.261Z,2.58
2023-05-14T13:54:12.116Z,2.60
2023-05-14T13:56:38.849Z,2.50
2023-05-14T13:59:05.935Z,2.25
2023-05-14T14:01:32.864Z,2.22
2023-05-14T14:03:59.702Z,2.47
2023-05-14T14:06:29.766Z,2.92
2023-05-14T14:08:56.543Z,2.58
2023-05-14T14:11:23.342Z,2.83
2023-05-14T14:13:50.048Z,2.15
2023-05-14T14:16:16.887Z,2.05
2023-05-14T14:18:44.905Z,2.17
2023-05-14T14:21:11.953Z,2.20
2023-05-14T14:23:38.653Z,2.25
2023-05-14T14:26:05.407Z,2.33
2023-05-14T14:28:32.519Z,1.98
2023-05-14T14:30:59.185Z,2.00
2023-05-14T14:33:25.921Z,2.13
2023-05-14T14:35:52.966Z,2.05
2023-05-14T14:38:19.840Z,2.53
2023-05-14T14:40:46.889Z,1.90
2023-05-14T14:43:13.610Z,2.28
2023-05-14T14:45:40.433Z,2.25
2023-05-14T14:48:26.562Z,2.65
2023-05-14T14:50:54.304Z,2.80
2023-05-14T14:53:22.738Z,2.35
2023-05-14T14:55:50.648Z,2.60
2023-05-14T14:58:19.638Z,2.40
2023-05-14T15:00:47.323Z,2.30
2023-05-14T15:03:15.244Z,2.10
2023-05-14T15:05:42.370Z,2.13
2023-05-14T15:08:09.057Z,1.90
2023-05-14T15:10:39.014Z,1.85
2023-05-14T15:13:06.965Z,2.20
2023-05-14T15:15:34.755Z,2.58
2023-05-14T15:18:02.669Z,2.08
2023-05-14T15:20:29.661Z,2.10
2023-05-14T15:22:56.734Z,2.45
2023-05-14T15:25:24.636Z,2.50
2023-05-14T15:27:51.760Z,2.75
2023-05-14T15:30:19.154Z,2.88
2023-05-14T15:32:46.736Z,3.25
2023-05-14T15:35:15.906Z,2.13
2023-05-14T15:37:44.602Z,2.13
2023-05-14T15:40:12.137Z,2.53
2023-05-14T15:42:42.153Z,2.50
2023-05-14T15:45:10.635Z,2.40
2023-05-14T15:47:37.477Z,2.25
2023-05-14T15:50:05.322Z,2.28
2023-05-14T15:52:32.429Z,2.17
2023-05-14T15:54:59.572Z,2.70
2023-05-14T15:57:27.597Z,2.38
2023-05-14T15:59:54.518Z,2.60
2023-05-14T16:02:21.220Z,2.22
2023-05-14T16:04:49.520Z,2.45
2023-05-14T16:07:16.322Z,2.35
2023-05-14T16:09:43.180Z,2.10
2023-05-14T16:12:09.875Z,2.53
2023-05-14T16:14:36.752Z,2.00
2023-05-14T16:17:03.690Z,2.65
2023-05-14T16:19:30.529Z,2.75
2023-05-14T16:21:57.207Z,2.85
2023-05-14T16:24:23.971Z,2.75
2023-05-14T16:26:50.679Z,2.92
2023-05-14T16:29:17.739Z,2.47
2023-05-14T16:31:44.628Z,2.80
2023-05-14T16:34:11.401Z,2.85
2023-05-14T16:36:38.334Z,2.80
2023-05-14T16:39:08.177Z,2.80
2023-05-14T16:41:36.110Z,2.30
2023-05-14T16:44:03.404Z,2.95
2023-05-14T16:46:31.224Z,2.80
2023-05-14T16:48:58.038Z,2.95
2023-05-14T16:51:24.790Z,3.03
2023-05-14T16:53:52.161Z,3.08
2023-05-14T16:56:19.215Z,3.10
2023-05-14T16:58:45.939Z,3.65
2023-05-14T17:01:12.753Z,3.60
2023-05-14T17:03:39.550Z,3.05
2023-05-14T17:06:07.182Z,3.05
2023-05-14T17:08:35.509Z,3.38
2023-05-14T17:11:05.466Z,3.50
2023-05-14T17:13:33.112Z,3.65
2023-05-14T17:16:00.614Z,3.13
2023-05-14T17:18:27.758Z,3.08
2023-05-14T17:20:54.556Z,3.20
2023-05-14T17:23:21.314Z,3.20
2023-05-14T17:25:48.003Z,3.72
2023-05-14T17:28:14.797Z,3.40
2023-05-14T17:30:41.585Z,3.00
2023-05-14T17:33:08.549Z,3.33
2023-05-14T17:35:36.347Z,3.17
2023-05-14T17:38:03.565Z,3.10
2023-05-14T17:40:30.453Z,3.40
2023-05-14T17:42:57.249Z,2.90
2023-05-14T17:45:24.408Z,3.35
2023-05-14T17:47:51.472Z,2.80
2023-05-14T17:50:19.315Z,2.85
2023-05-14T17:52:46.205Z,3.08
2023-05-14T17:55:13.268Z,3.05
2023-05-14T17:57:41.929Z,3.45
2023-05-14T18:00:09.358Z,3.05
2023-05-14T18:02:39.602Z,2.83
2023-05-14T18:05:06.874Z,3.38
2023-05-14T18:07:34.656Z,3.05
2023-05-14T18:10:01.458Z,3.00
2023-05-14T18:12:29.044Z,3.45
2023-05-14T18:14:55.810Z,2.95
2023-05-14T18:17:22.621Z,3.20
2023-05-14T18:19:49.442Z,3.10
2023-05-14T18:22:16.214Z,2.95
2023-05-14T18:24:44.286Z,3.00
2023-05-14T18:27:11.312Z,3.92
2023-05-14T18:29:38.016Z,3.10
2023-05-14T18:32:06.513Z,3.05
2023-05-14T18:34:33.197Z,3.10
2023-05-14T18:36:59.936Z,3.10
2023-05-14T18:39:26.633Z,3.28
2023-05-14T18:41:53.970Z,2.92
2023-05-14T18:44:20.748Z,3.10
2023-05-14T18:46:47.523Z,2.88
2023-05-14T18:49:14.282Z,2.60
2023-05-14T18:51:40.989Z,2.67
2023-05-14T18:54:07.716Z,2.63
2023-05-14T18:56:37.114Z,2.63
2023-05-14T18:59:04.350Z,2.55
2023-05-14T19:01:31.398Z,2.60
2023-05-14T19:03:58.298Z,2.40
2023-05-14T19:06:25.622Z,2.65
2023-05-14T19:08:52.444Z,2.88
2023-05-14T19:11:19.199Z,2.70
2023-05-14T19:13:49.528Z,2.38
2023-05-14T19:16:16.339Z,2.15
2023-05-14T19:18:43.266Z,2.88
2023-05-14T19:21:10.031Z,3.25
2023-05-14T19:23:36.732Z,3.08
2023-05-14T19:26:04.065Z,2.88
2023-05-14T19:28:30.738Z,2.90
2023-05-14T19:30:57.406Z,2.88
2023-05-14T19:33:25.856Z,2.75
2023-05-14T19:35:52.734Z,3.20
2023-05-14T19:38:19.749Z,3.28
2023-05-14T19:40:46.446Z,3.85
2023-05-14T19:43:13.562Z,4.00
2023-05-14T19:45:42.589Z,4.28
2023-05-14T19:48:09.527Z,3.72
2023-05-14T19:50:37.093Z,3.85
2023-05-14T19:53:04.592Z,4.53
2023-05-14T19:55:31.313Z,3.63
2023-05-14T19:57:58.067Z,3.35
2023-05-14T20:00:24.870Z,3.97
2023-05-14T20:02:51.816Z,3.70
2023-05-14T20:05:18.617Z,4.20
2023-05-14T20:07:46.900Z,3.80
2023-05-14T20:10:14.190Z,3.53
2023-05-14T20:12:40.973Z,3.30
2023-05-14T20:15:08.254Z,3.80
2023-05-14T20:17:35.016Z,3.53
2023-05-14T20:20:01.777Z,3.50
2023-05-14T20:22:28.501Z,3.63
2023-05-14T20:24:55.606Z,3.38
2023-05-14T20:27:22.303Z,3.45
2023-05-14T20:29:51.326Z,3.05
2023-05-14T20:32:18.261Z,3.25
2023-05-14T20:34:45.000Z,4.28
2023-05-14T20:37:11.822Z,3.95
2023-05-14T20:39:38.541Z,4.00
2023-05-14T20:42:05.728Z,4.13
2023-05-14T20:44:32.403Z,4.15
2023-05-14T20:46:59.218Z,4.25
2023-05-14T20:49:26.078Z,4.15
2023-05-14T20:51:52.747Z,4.93
2023-05-14T20:54:19.448Z,4.50
2023-05-14T20:56:46.257Z,5.10
2023-05-14T20:59:12.996Z,4.63
2023-05-14T21:01:39.713Z,5.40
2023-05-14T21:04:07.069Z,5.63
2023-05-14T21:06:34.027Z,5.28
2023-05-14T21:09:00.706Z,5.30
2023-05-14T21:11:27.378Z,5.43
2023-05-14T21:13:54.236Z,5.05
2023-05-14T21:16:21.027Z,4.10
2023-05-14T21:18:47.923Z,5.00
2023-05-14T21:21:14.738Z,4.55
2023-05-14T21:23:41.397Z,4.65
2023-05-14T21:26:08.155Z,5.28
2023-05-14T21:28:34.896Z,5.95
2023-05-14T21:31:01.616Z,5.30
2023-05-14T21:33:28.975Z,5.70
2023-05-14T21:35:55.733Z,5.40
2023-05-14T21:38:22.475Z,5.05
2023-05-14T21:40:49.334Z,6.45
2023-05-14T21:43:16.076Z,5.20
2023-05-14T21:45:43.974Z,4.97
2023-05-14T21:48:10.829Z,6.00
2023-05-14T21:50:39.821Z,5.88
2023-05-14T21:53:06.606Z,5.53
2023-05-14T21:55:33.553Z,6.15
2023-05-14T21:58:00.389Z,6.72
2023-05-14T22:00:28.076Z,6.20
2023-05-14T22:02:55.479Z,5.97
2023-05-14T22:05:22.402Z,6.70
2023-05-14T22:07:49.423Z,6.75
2023-05-14T22:10:16.594Z,7.05
2023-05-14T22:12:44.672Z,7.28
2023-05-14T22:15:12.271Z,6.60
2023-05-14T22:17:39.187Z,7.50
2023-05-14T22:20:07.355Z,6.93
2023-05-14T22:22:34.367Z,7.20
2023-05-14T22:25:01.196Z,7.13
2023-05-14T22:27:31.452Z,6.60
2023-05-14T22:29:58.890Z,7.00
2023-05-14T22:32:25.971Z,7.20
2023-05-14T22:34:52.867Z,7.40
2023-05-14T22:37:19.649Z,7.20
2023-05-14T22:39:46.285Z,7.75
2023-05-14T22:42:13.350Z,8.55
2023-05-14T22:44:40.005Z,9.18
2023-05-14T22:47:06.821Z,8.60
2023-05-14T22:49:33.543Z,8.77
2023-05-14T22:52:00.265Z,8.95
2023-05-14T22:54:26.927Z,8.98
2023-05-14T22:56:53.657Z,8.95
2023-05-14T22:59:22.733Z,9.27
2023-05-14T23:01:50.370Z,11.23
2023-05-14T23:04:17.223Z,9.82
2023-05-14T23:06:44.439Z,9.98
2023-05-14T23:09:11.137Z,10.75
2023-05-14T23:11:38.113Z,12.85
2023-05-14T23:14:04.879Z,12.48
2023-05-14T23:16:31.862Z,12.15
2023-05-14T23:18:58.765Z,12.85
2023-05-14T23:21:25.779Z,12.13
2023-05-14T23:23:52.468Z,13.40
2023-05-14T23:26:19.314Z,13.88
2023-05-14T23:28:47.296Z,14.75
2023-05-14T23:31:14.148Z,14.70
2023-05-14T23:33:41.088Z,15.13
2023-05-14T23:36:08.401Z,14.88
2023-05-14T23:38:35.375Z,16.75
2023-05-14T23:41:02.226Z,15.10
2023-05-14T23:43:28.946Z,15.85
2023-05-14T23:45:55.852Z,16.63
2023-05-14T23:48:22.569Z,17.33
2023-05-14T23:50:49.226Z,17.52
2023-05-14T23:53:16.005Z,18.55
2023-05-14T23:55:42.725Z,17.30
2023-05-14T23:58:09.361Z,18.27
